Time;durP1;ratioP1;P1;durP2;ratioP2;P2;SDS_P1;SDS_P2;PMS_P1;PMS_P2;Temp;Humidity;BMP_temperature;BMP_pressure;BME280_temperature;BME280_humidity;BME280_pressure;Samples;Min_cycle;Max_cycle;Signal;HPM_P1;HPM_P2
2022/03/18 00:00:16;;;;;;;5.10;3.67;;;;;;;;;;5053749;28;20197;-82
2022/03/18 00:02:44;;;;;;;4.10;2.60;;;;;;;;;;5053602;28;20193;-83
2022/03/18 00:05:13;;;;;;;3.13;2.55;;;;;;;;;;5053598;28;20197;-82
2022/03/18 00:07:41;;;;;;;3.40;3.10;;;;;;;;;;5053311;28;20724;-84
2022/03/18 00:10:10;;;;;;;5.03;3.10;;;;;;;;;;5053454;28;20225;-82
2022/03/18 00:12:38;;;;;;;4.63;2.53;;;;;;;;;;5053365;28;20662;-83
2022/03/18 00:15:08;;;;;;;3.33;2.53;;;;;;;;;;5052756;28;20198;-83
2022/03/18 00:17:36;;;;;;;4.90;3.33;;;;;;;;;;5053551;28;20218;-82
2022/03/18 00:20:05;;;;;;;5.05;2.88;;;;;;;;;;5053266;28;20205;-82
2022/03/18 00:22:34;;;;;;;4.20;3.15;;;;;;;;;;5052810;28;20205;-81
2022/03/18 00:25:01;;;;;;;4.18;3.63;;;;;;;;;;5053308;28;20221;-82
2022/03/18 00:27:29;;;;;;;4.65;3.03;;;;;;;;;;5052919;28;20236;-82
2022/03/18 00:29:57;;;;;;;5.32;3.47;;;;;;;;;;5053048;28;20213;-82
2022/03/18 00:32:25;;;;;;;6.18;2.70;;;;;;;;;;5052428;28;20574;-82
2022/03/18 00:34:52;;;;;;;9.02;3.47;;;;;;;;;;5053128;28;20563;-82
2022/03/18 00:37:20;;;;;;;8.32;3.20;;;;;;;;;;5053166;28;20205;-83
2022/03/18 00:39:49;;;;;;;7.75;4.88;;;;;;;;;;5053500;28;20202;-82
2022/03/18 00:42:16;;;;;;;9.93;4.10;;;;;;;;;;5052282;28;20678;-82
2022/03/18 00:44:43;;;;;;;6.53;3.40;;;;;;;;;;5053122;28;20267;-81
2022/03/18 00:52:37;;;;;;;8.70;3.40;;;;;;;;;;5056733;28;20282;-82
2022/03/18 00:55:07;;;;;;;5.38;3.72;;;;;;;;;;5057292;28;20666;-83
2022/03/18 00:57:35;;;;;;;7.25;4.28;;;;;;;;;;5056351;28;20217;-83
2022/03/18 01:00:03;;;;;;;6.28;3.95;;;;;;;;;;5057086;28;20654;-82
2022/03/18 01:02:30;;;;;;;4.15;3.35;;;;;;;;;;5056416;28;20205;-83
2022/03/18 01:04:57;;;;;;;6.95;3.42;;;;;;;;;;5055807;28;20775;-82
2022/03/18 01:07:25;;;;;;;6.03;3.67;;;;;;;;;;5056227;28;20205;-83
2022/03/18 01:09:52;;;;;;;7.10;3.65;;;;;;;;;;5056370;28;20206;-83
2022/03/18 01:12:20;;;;;;;6.72;4.43;;;;;;;;;;5055761;28;20212;-82
2022/03/18 01:14:48;;;;;;;10.23;4.15;;;;;;;;;;5056310;28;20674;-84
2022/03/18 01:17:15;;;;;;;6.35;3.67;;;;;;;;;;5056385;28;20261;-82
2022/03/18 01:19:43;;;;;;;4.95;3.40;;;;;;;;;;5055805;28;20217;-83
2022/03/18 01:22:10;;;;;;;7.72;4.85;;;;;;;;;;5055777;28;20619;-83
2022/03/18 01:24:38;;;;;;;7.13;3.25;;;;;;;;;;5055818;28;20767;-82
2022/03/18 01:27:06;;;;;;;6.25;3.92;;;;;;;;;;5055908;28;20217;-82
2022/03/18 01:29:35;;;;;;;6.80;4.38;;;;;;;;;;5056202;28;20201;-82
2022/03/18 01:32:02;;;;;;;7.80;3.80;;;;;;;;;;5056024;28;20291;-83
2022/03/18 01:34:29;;;;;;;8.07;3.58;;;;;;;;;;5055771;28;20576;-82
2022/03/18 01:36:57;;;;;;;6.22;3.83;;;;;;;;;;5055671;28;20644;-83
2022/03/18 01:39:24;;;;;;;6.40;3.85;;;;;;;;;;5056197;28;20267;-83
2022/03/18 01:41:52;;;;;;;5.25;4.32;;;;;;;;;;5055990;28;20332;-82
2022/03/18 01:44:20;;;;;;;8.90;5.10;;;;;;;;;;5055775;28;20230;-82
2022/03/18 01:46:49;;;;;;;5.18;3.70;;;;;;;;;;5055902;28;20201;-81
2022/03/18 01:49:16;;;;;;;7.25;4.65;;;;;;;;;;5055008;28;20221;-82
2022/03/18 01:51:43;;;;;;;4.85;3.75;;;;;;;;;;5055132;28;20565;-83
2022/03/18 01:56:56;;;;;;;8.48;4.60;;;;;;;;;;5055255;28;20232;-83
2022/03/18 01:59:24;;;;;;;5.65;3.72;;;;;;;;;;5055528;28;20230;-82
2022/03/18 02:01:53;;;;;;;6.05;3.65;;;;;;;;;;5054570;28;20202;-83
2022/03/18 02:04:20;;;;;;;5.15;2.95;;;;;;;;;;5054664;28;20723;-81
2022/03/18 02:06:48;;;;;;;7.20;3.30;;;;;;;;;;5055332;28;20577;-83
2022/03/18 02:09:15;;;;;;;7.28;4.18;;;;;;;;;;5054710;28;20596;-83
2022/03/18 02:11:42;;;;;;;3.88;3.47;;;;;;;;;;5054618;28;20221;-82
2022/03/18 02:14:10;;;;;;;4.55;3.72;;;;;;;;;;5054820;28;20206;-83
2022/03/18 02:16:39;;;;;;;7.05;3.97;;;;;;;;;;5054764;28;20561;-83
2022/03/18 02:19:08;;;;;;;7.78;3.33;;;;;;;;;;5054392;28;20233;-82
2022/03/18 02:21:38;;;;;;;4.28;2.97;;;;;;;;;;5054804;28;20212;-83
2022/03/18 02:24:07;;;;;;;5.28;3.55;;;;;;;;;;5054425;28;20202;-83
2022/03/18 02:26:35;;;;;;;5.50;3.22;;;;;;;;;;5054534;28;20328;-81
2022/03/18 02:29:04;;;;;;;5.43;3.78;;;;;;;;;;5054192;28;20280;-82
2022/03/18 02:31:32;;;;;;;7.78;4.13;;;;;;;;;;5054510;28;20221;-85
2022/03/18 02:33:59;;;;;;;5.38;3.58;;;;;;;;;;5054563;28;20689;-82
2022/03/18 02:36:27;;;;;;;3.92;3.08;;;;;;;;;;5054569;28;20213;-82
2022/03/18 02:38:54;;;;;;;9.20;4.55;;;;;;;;;;5054226;28;20237;-83
2022/03/18 02:41:23;;;;;;;4.90;3.15;;;;;;;;;;5054559;28;20259;-84
2022/03/18 02:43:50;;;;;;;4.22;3.05;;;;;;;;;;5054437;28;20638;-82
2022/03/18 02:46:18;;;;;;;5.63;3.35;;;;;;;;;;5053540;28;20701;-84
2022/03/18 02:48:45;;;;;;;9.88;4.63;;;;;;;;;;5053829;28;20232;-82
2022/03/18 02:51:13;;;;;;;5.43;3.17;;;;;;;;;;5053672;28;20209;-82
2022/03/18 02:53:40;;;;;;;4.05;3.42;;;;;;;;;;5053977;28;20205;-82
2022/03/18 02:56:08;;;;;;;7.22;3.40;;;;;;;;;;5053468;28;20198;-81
2022/03/18 02:58:37;;;;;;;5.20;3.78;;;;;;;;;;5053796;28;20218;-83
2022/03/18 03:01:05;;;;;;;8.35;3.72;;;;;;;;;;5053855;28;20198;-83
2022/03/18 03:03:32;;;;;;;6.47;3.97;;;;;;;;;;5053992;28;20205;-83
2022/03/18 03:08:44;;;;;;;4.60;3.08;;;;;;;;;;5053978;28;21320;-82
2022/03/18 03:11:12;;;;;;;9.63;3.92;;;;;;;;;;5054327;28;20653;-82
2022/03/18 03:13:41;;;;;;;6.18;3.58;;;;;;;;;;5052880;28;20194;-82
2022/03/18 03:16:08;;;;;;;6.47;3.72;;;;;;;;;;5054247;28;20233;-83
2022/03/18 03:18:36;;;;;;;4.70;3.80;;;;;;;;;;5053861;28;20230;-81
2022/03/18 03:21:03;;;;;;;8.18;3.88;;;;;;;;;;5053974;28;20563;-83
2022/03/18 03:23:31;;;;;;;9.15;3.65;;;;;;;;;;5053864;28;20208;-82
2022/03/18 03:25:58;;;;;;;7.18;3.78;;;;;;;;;;5053397;28;20225;-83
2022/03/18 03:28:25;;;;;;;6.90;4.07;;;;;;;;;;5054087;28;20593;-82
2022/03/18 03:30:54;;;;;;;5.57;3.80;;;;;;;;;;5053333;28;20243;-81
2022/03/18 03:33:22;;;;;;;4.45;3.83;;;;;;;;;;5053413;28;20198;-81
2022/03/18 03:35:49;;;;;;;10.05;4.95;;;;;;;;;;5033336;28;20206;-82
2022/03/18 03:38:17;;;;;;;4.70;3.33;;;;;;;;;;5033444;28;20226;-82
2022/03/18 03:40:44;;;;;;;6.72;3.60;;;;;;;;;;5033909;28;20182;-82
2022/03/18 03:43:12;;;;;;;6.35;4.05;;;;;;;;;;5033866;28;20285;-83
2022/03/18 03:45:40;;;;;;;5.95;3.78;;;;;;;;;;5033355;28;20233;-81
2022/03/18 03:48:10;;;;;;;5.10;3.38;;;;;;;;;;5033475;28;20218;-82
2022/03/18 03:50:40;;;;;;;5.65;3.67;;;;;;;;;;5033464;28;20558;-82
2022/03/18 03:53:08;;;;;;;5.70;3.60;;;;;;;;;;5033337;28;20198;-82
2022/03/18 03:55:39;;;;;;;6.20;4.03;;;;;;;;;;5036199;28;20603;-83
2022/03/18 03:58:07;;;;;;;5.35;3.75;;;;;;;;;;5035129;28;20222;-82
2022/03/18 04:00:36;;;;;;;11.75;4.70;;;;;;;;;;5033323;28;20206;-82
2022/03/18 04:03:04;;;;;;;7.65;3.78;;;;;;;;;;5033650;28;20206;-81
2022/03/18 04:05:33;;;;;;;5.82;3.53;;;;;;;;;;5051649;28;20312;-81
2022/03/18 04:08:00;;;;;;;6.93;3.42;;;;;;;;;;5052737;28;20709;-83
2022/03/18 04:10:28;;;;;;;4.90;3.72;;;;;;;;;;5052553;28;20225;-83
2022/03/18 04:12:56;;;;;;;7.03;3.85;;;;;;;;;;5053211;28;20816;-82
2022/03/18 04:15:24;;;;;;;11.85;4.00;;;;;;;;;;5053504;28;20198;-82
2022/03/18 04:17:51;;;;;;;6.38;4.22;;;;;;;;;;5054401;28;20276;-82
2022/03/18 04:20:21;;;;;;;4.70;3.63;;;;;;;;;;5053410;28;20212;-82
2022/03/18 04:22:50;;;;;;;5.15;4.13;;;;;;;;;;5058084;28;20204;-82
2022/03/18 04:25:20;;;;;;;7.43;4.70;;;;;;;;;;5073117;28;20201;-81
2022/03/18 04:27:48;;;;;;;5.80;3.85;;;;;;;;;;5072520;28;20222;-82
2022/03/18 04:30:16;;;;;;;8.35;3.92;;;;;;;;;;5071457;28;20209;-81
2022/03/18 04:32:44;;;;;;;7.78;3.88;;;;;;;;;;5071777;28;20213;-82
2022/03/18 04:35:12;;;;;;;8.95;4.25;;;;;;;;;;5055103;28;20206;-81
2022/03/18 04:37:41;;;;;;;8.65;3.72;;;;;;;;;;5049431;28;20218;-83
2022/03/18 04:40:12;;;;;;;6.82;4.10;;;;;;;;;;5039576;28;20282;-83
2022/03/18 04:42:40;;;;;;;10.38;3.53;;;;;;;;;;5039638;28;20631;-83
2022/03/18 04:45:08;;;;;;;3.40;3.10;;;;;;;;;;5038113;28;20210;-83
2022/03/18 04:47:36;;;;;;;7.57;3.70;;;;;;;;;;5037260;28;20226;-83
2022/03/18 04:50:05;;;;;;;6.22;4.57;;;;;;;;;;5037860;28;20198;-83
2022/03/18 04:52:33;;;;;;;5.25;3.67;;;;;;;;;;5038665;28;20210;-83
2022/03/18 04:55:00;;;;;;;11.18;5.35;;;;;;;;;;5038434;28;20198;-83
2022/03/18 04:57:31;;;;;;;7.65;4.10;;;;;;;;;;5044562;28;20237;-81
2022/03/18 04:59:59;;;;;;;6.70;4.25;;;;;;;;;;5051224;28;20640;-81
2022/03/18 05:02:26;;;;;;;5.78;3.53;;;;;;;;;;5050936;28;20203;-81
2022/03/18 05:04:54;;;;;;;6.22;3.45;;;;;;;;;;5065394;28;20216;-82
2022/03/18 05:07:21;;;;;;;5.85;3.78;;;;;;;;;;5071001;28;20222;-83
2022/03/18 05:09:49;;;;;;;4.03;3.63;;;;;;;;;;5061948;28;20205;-82
2022/03/18 05:12:18;;;;;;;6.38;3.92;;;;;;;;;;5057726;28;20190;-82
2022/03/18 05:14:47;;;;;;;6.40;3.17;;;;;;;;;;5057876;28;20204;-83
2022/03/18 05:17:15;;;;;;;3.60;3.15;;;;;;;;;;5057466;28;20194;-82
2022/03/18 05:19:42;;;;;;;6.75;3.60;;;;;;;;;;5056684;28;20216;-83
2022/03/18 05:22:09;;;;;;;7.15;4.28;;;;;;;;;;5056450;28;20201;-84
2022/03/18 05:24:37;;;;;;;4.75;3.42;;;;;;;;;;5056848;28;20202;-83
2022/03/18 05:27:05;;;;;;;8.35;4.10;;;;;;;;;;5055978;28;20218;-83
2022/03/18 05:29:33;;;;;;;6.70;3.63;;;;;;;;;;5056201;28;20222;-82
2022/03/18 05:32:02;;;;;;;5.72;3.75;;;;;;;;;;5055800;28;20225;-83
2022/03/18 05:34:30;;;;;;;9.25;4.70;;;;;;;;;;5057516;28;20205;-83
2022/03/18 05:36:58;;;;;;;6.15;3.92;;;;;;;;;;5059724;28;20682;-85
2022/03/18 05:39:25;;;;;;;7.60;3.70;;;;;;;;;;5056686;28;20226;-83
2022/03/18 05:41:52;;;;;;;5.55;3.95;;;;;;;;;;5056899;28;20208;-85
2022/03/18 05:44:20;;;;;;;6.85;3.65;;;;;;;;;;5057375;28;20205;-82
2022/03/18 05:46:47;;;;;;;4.78;3.47;;;;;;;;;;5055984;28;20217;-79
2022/03/18 05:49:17;;;;;;;6.10;4.22;;;;;;;;;;5055410;28;20226;-78
2022/03/18 05:51:44;;;;;;;7.18;3.75;;;;;;;;;;5055087;28;20565;-79
2022/03/18 05:54:12;;;;;;;6.82;3.92;;;;;;;;;;5055145;28;20198;-79
2022/03/18 05:56:54;;;;;;;9.43;4.78;;;;;;;;;;5055357;28;20209;-78
2022/03/18 05:59:22;;;;;;;7.45;4.70;;;;;;;;;;5054812;28;20701;-79
2022/03/18 06:01:50;;;;;;;9.38;4.40;;;;;;;;;;5055125;28;20206;-79
2022/03/18 06:04:19;;;;;;;7.40;3.72;;;;;;;;;;5055358;28;20205;-79
2022/03/18 06:06:47;;;;;;;5.70;3.88;;;;;;;;;;5061002;28;20224;-79
2022/03/18 06:12:00;;;;;;;5.65;4.22;;;;;;;;;;5056698;28;20216;-78
2022/03/18 06:14:29;;;;;;;6.75;4.00;;;;;;;;;;5062403;28;20209;-79
2022/03/18 06:16:59;;;;;;;5.60;3.80;;;;;;;;;;5074291;28;20673;-79
2022/03/18 06:19:29;;;;;;;4.57;3.22;;;;;;;;;;5074431;28;20259;-79
2022/03/18 06:21:57;;;;;;;4.97;3.60;;;;;;;;;;5073735;28;20258;-79
2022/03/18 06:24:25;;;;;;;7.20;3.50;;;;;;;;;;5074078;28;20201;-79
2022/03/18 06:26:53;;;;;;;4.70;3.10;;;;;;;;;;5074414;28;20228;-81
2022/03/18 06:29:21;;;;;;;5.15;3.25;;;;;;;;;;5074759;28;20233;-80
2022/03/18 06:31:49;;;;;;;6.78;3.20;;;;;;;;;;5074377;28;20205;-79
2022/03/18 06:34:17;;;;;;;8.10;3.20;;;;;;;;;;5074386;28;20205;-78
2022/03/18 06:36:46;;;;;;;3.70;2.45;;;;;;;;;;5061957;28;20206;-79
2022/03/18 06:39:14;;;;;;;5.30;2.72;;;;;;;;;;5055345;28;20230;-79
2022/03/18 06:41:41;;;;;;;5.72;2.95;;;;;;;;;;5055123;28;20271;-80
2022/03/18 06:44:09;;;;;;;4.07;2.42;;;;;;;;;;5055853;28;20271;-80
2022/03/18 06:46:37;;;;;;;9.25;2.85;;;;;;;;;;5054602;28;20589;-81
2022/03/18 06:49:04;;;;;;;4.78;2.58;;;;;;;;;;5054963;28;20287;-81
2022/03/18 06:51:32;;;;;;;5.32;2.75;;;;;;;;;;5056206;28;20662;-80
2022/03/18 06:54:01;;;;;;;10.13;4.25;;;;;;;;;;5055248;28;20201;-78
2022/03/18 06:56:30;;;;;;;6.68;2.35;;;;;;;;;;5055803;28;20201;-82
2022/03/18 06:58:58;;;;;;;12.82;3.88;;;;;;;;;;5055474;28;20605;-82
2022/03/18 07:01:25;;;;;;;4.43;2.67;;;;;;;;;;5058595;28;20206;-82
2022/03/18 07:03:53;;;;;;;6.13;2.45;;;;;;;;;;5057176;28;20228;-79
2022/03/18 07:06:20;;;;;;;5.07;2.72;;;;;;;;;;5074215;28;20208;-82
2022/03/18 07:08:47;;;;;;;6.80;2.20;;;;;;;;;;5069886;28;20716;-81
2022/03/18 07:11:16;;;;;;;9.70;2.38;;;;;;;;;;5074572;28;20215;-80
2022/03/18 07:13:45;;;;;;;4.50;2.00;;;;;;;;;;5074643;28;20259;-79
2022/03/18 07:18:58;;;;;;;3.75;2.60;;;;;;;;;;5075124;28;20236;-83
2022/03/18 07:21:25;;;;;;;4.55;2.60;;;;;;;;;;5075492;28;20205;-81
2022/03/18 07:23:53;;;;;;;4.30;3.33;;;;;;;;;;5075435;28;20258;-81
2022/03/18 07:26:22;;;;;;;4.03;2.10;;;;;;;;;;5075654;28;20200;-80
2022/03/18 07:28:49;;;;;;;4.25;2.03;;;;;;;;;;5075617;28;20225;-82
2022/03/18 07:31:16;;;;;;;8.43;4.18;;;;;;;;;;5058417;28;20569;-81
2022/03/18 07:33:44;;;;;;;6.40;4.57;;;;;;;;;;5055217;28;20209;-81
2022/03/18 07:36:11;;;;;;;5.30;2.85;;;;;;;;;;5065233;28;20205;-82
2022/03/18 07:38:38;;;;;;;4.20;2.28;;;;;;;;;;5055978;28;20652;-82
2022/03/18 07:41:05;;;;;;;6.53;3.30;;;;;;;;;;5056494;28;20581;-81
2022/03/18 07:43:34;;;;;;;3.72;2.25;;;;;;;;;;5057420;28;20202;-81
2022/03/18 07:46:01;;;;;;;4.25;2.70;;;;;;;;;;5056906;28;20210;-80
2022/03/18 07:48:29;;;;;;;5.07;2.95;;;;;;;;;;5055995;28;20233;-81
2022/03/18 07:50:56;;;;;;;7.20;2.78;;;;;;;;;;5057120;28;20706;-81
2022/03/18 07:53:24;;;;;;;5.00;3.15;;;;;;;;;;5056599;28;20216;-82
2022/03/18 07:55:51;;;;;;;7.10;3.22;;;;;;;;;;5057728;28;20205;-83
2022/03/18 07:58:18;;;;;;;4.18;3.28;;;;;;;;;;5055787;28;20248;-80
2022/03/18 08:00:47;;;;;;;5.63;3.60;;;;;;;;;;5058736;28;20210;-81
2022/03/18 08:03:14;;;;;;;5.65;4.10;;;;;;;;;;5055805;28;20213;-81
2022/03/18 08:05:42;;;;;;;3.90;2.95;;;;;;;;;;5058073;28;20632;-80
2022/03/18 08:08:10;;;;;;;4.00;2.33;;;;;;;;;;5074557;28;20233;-81
2022/03/18 08:10:37;;;;;;;3.05;2.53;;;;;;;;;;5075338;28;20250;-81
2022/03/18 08:13:05;;;;;;;3.90;2.50;;;;;;;;;;5073551;28;20208;-80
2022/03/18 08:15:32;;;;;;;3.95;2.25;;;;;;;;;;5073847;28;20286;-80
2022/03/18 08:18:02;;;;;;;3.53;1.92;;;;;;;;;;5073125;28;20228;-80
2022/03/18 08:20:29;;;;;;;3.13;1.83;;;;;;;;;;5073798;28;20209;-80
2022/03/18 08:22:57;;;;;;;5.05;2.05;;;;;;;;;;5073498;28;20239;-80
2022/03/18 08:25:24;;;;;;;2.60;1.80;;;;;;;;;;5073603;28;20209;-80
2022/03/18 08:27:52;;;;;;;4.93;2.13;;;;;;;;;;5073579;28;20252;-79
2022/03/18 08:30:19;;;;;;;4.28;2.75;;;;;;;;;;5073970;28;20209;-82
2022/03/18 08:32:47;;;;;;;4.47;2.00;;;;;;;;;;5101457;22;20224;-81
2022/03/18 08:35:16;;;;;;;3.83;2.00;;;;;;;;;;5077898;28;20200;-81
2022/03/18 08:37:59;;;;;;;1.85;1.70;;;;;;;;;;5078068;28;20197;-81
2022/03/18 08:40:28;;;;;;;4.80;2.47;;;;;;;;;;5071731;28;20295;-81
2022/03/18 08:42:56;;;;;;;2.35;1.83;;;;;;;;;;5071348;28;20506;-81
2022/03/18 08:45:24;;;;;;;3.75;2.25;;;;;;;;;;5071213;28;20200;-81
2022/03/18 08:47:53;;;;;;;2.92;1.85;;;;;;;;;;5071812;28;20212;-81
2022/03/18 08:50:23;;;;;;;3.08;1.80;;;;;;;;;;5072022;28;20211;-80
2022/03/18 08:52:53;;;;;;;2.65;1.77;;;;;;;;;;5071706;28;20229;-81
2022/03/18 08:55:21;;;;;;;3.05;1.35;;;;;;;;;;5071666;28;20185;-81
2022/03/18 08:57:48;;;;;;;2.42;1.35;;;;;;;;;;5071798;28;20201;-81
2022/03/18 09:00:20;;;;;;;1.20;1.10;;;;;;;;;;5071324;28;20200;-82
2022/03/18 09:02:49;;;;;;;1.70;1.35;;;;;;;;;;5071553;28;20224;-82
2022/03/18 09:05:16;;;;;;;2.15;1.95;;;;;;;;;;5071099;28;20216;-82
2022/03/18 09:07:46;;;;;;;1.23;1.13;;;;;;;;;;5071629;28;20250;-82
2022/03/18 09:10:14;;;;;;;3.25;1.50;;;;;;;;;;5071680;28;20587;-82
2022/03/18 09:12:49;;;;;;;4.07;2.25;;;;;;;;;;5075191;28;20224;-81
2022/03/18 09:15:16;;;;;;;3.20;1.50;;;;;;;;;;5075007;28;20281;-82
2022/03/18 09:17:44;;;;;;;2.20;1.40;;;;;;;;;;5074921;28;20201;-82
2022/03/18 09:20:12;;;;;;;1.10;1.00;;;;;;;;;;5074488;28;20204;-81
2022/03/18 09:22:39;;;;;;;2.95;1.63;;;;;;;;;;5075030;28;20232;-82
2022/03/18 09:25:09;;;;;;;1.52;1.42;;;;;;;;;;5074675;28;20696;-82
2022/03/18 09:27:36;;;;;;;1.73;1.30;;;;;;;;;;5074965;28;20251;-81
2022/03/18 09:30:05;;;;;;;2.83;2.00;;;;;;;;;;5074290;28;20225;-82
2022/03/18 09:32:32;;;;;;;2.45;1.52;;;;;;;;;;5074395;28;20716;-81
2022/03/18 09:35:00;;;;;;;1.30;1.20;;;;;;;;;;5074166;28;20209;-82
2022/03/18 09:37:27;;;;;;;1.50;1.40;;;;;;;;;;5074394;28;20211;-81
2022/03/18 09:39:54;;;;;;;1.35;1.02;;;;;;;;;;5074603;28;20220;-82
2022/03/18 09:42:23;;;;;;;1.60;1.50;;;;;;;;;;5073736;28;20282;-81
2022/03/18 09:44:50;;;;;;;1.38;1.27;;;;;;;;;;5074268;28;20197;-81
2022/03/18 09:47:18;;;;;;;2.00;1.23;;;;;;;;;;5074496;28;20734;-82
2022/03/18 09:49:46;;;;;;;1.88;1.65;;;;;;;;;;5073818;28;20228;-82
2022/03/18 09:52:15;;;;;;;2.75;1.63;;;;;;;;;;5073867;28;20264;-82
2022/03/18 09:54:42;;;;;;;3.08;1.95;;;;;;;;;;5074247;28;20337;-81
2022/03/18 09:57:11;;;;;;;2.53;1.50;;;;;;;;;;5073991;28;20201;-82
2022/03/18 09:59:39;;;;;;;2.05;1.85;;;;;;;;;;5074379;28;20204;-83
2022/03/18 10:02:28;;;;;;;1.63;1.20;;;;;;;;;;5074108;28;20220;-82
2022/03/18 10:04:58;;;;;;;1.42;1.00;;;;;;;;;;5062827;28;20216;-80
2022/03/18 10:07:26;;;;;;;1.58;1.35;;;;;;;;;;5074208;28;20201;-82
2022/03/18 10:10:08;;;;;;;1.65;1.00;;;;;;;;;;5073771;28;20598;-81
2022/03/18 10:12:36;;;;;;;1.15;1.15;;;;;;;;;;5078863;28;20271;-83
2022/03/18 10:15:14;;;;;;;1.40;1.25;;;;;;;;;;5083531;28;20226;-81
2022/03/18 10:17:44;;;;;;;2.85;1.40;;;;;;;;;;5082529;28;20660;-84
2022/03/18 10:20:30;;;;;;;1.90;1.40;;;;;;;;;;5076070;28;20254;-83
2022/03/18 10:23:02;;;;;;;3.25;1.38;;;;;;;;;;5074503;28;20229;-83
2022/03/18 10:25:40;;;;;;;3.47;1.40;;;;;;;;;;5074697;28;20205;-83
2022/03/18 10:28:09;;;;;;;2.45;1.45;;;;;;;;;;5075127;28;20200;-83
2022/03/18 10:30:38;;;;;;;1.40;1.30;;;;;;;;;;5074540;28;20224;-83
2022/03/18 10:33:06;;;;;;;1.70;1.60;;;;;;;;;;5074365;28;20225;-84
2022/03/18 10:38:35;;;;;;;2.60;2.00;;;;;;;;;;4993059;28;20338;-83
2022/03/18 10:41:08;;;;;;;1.70;1.60;;;;;;;;;;5056073;28;20204;-83
2022/03/18 10:43:52;;;;;;;2.45;1.42;;;;;;;;;;5076439;28;20212;-84
2022/03/18 10:46:21;;;;;;;1.58;1.48;;;;;;;;;;5075410;28;20707;-84
2022/03/18 10:49:05;;;;;;;4.05;1.77;;;;;;;;;;5073998;28;20286;-83
2022/03/18 10:51:33;;;;;;;1.42;1.35;;;;;;;;;;5073640;28;20225;-82
2022/03/18 10:54:01;;;;;;;2.40;2.03;;;;;;;;;;5074045;28;20212;-83
2022/03/18 10:56:29;;;;;;;2.58;1.60;;;;;;;;;;5074070;28;20588;-83
2022/03/18 10:58:57;;;;;;;1.40;1.30;;;;;;;;;;5074031;28;20205;-83
2022/03/18 11:01:26;;;;;;;1.73;1.63;;;;;;;;;;5072870;28;20278;-83
2022/03/18 11:03:53;;;;;;;1.30;1.20;;;;;;;;;;5075062;28;20745;-84
2022/03/18 11:06:21;;;;;;;1.42;1.33;;;;;;;;;;5076620;28;20227;-85
2022/03/18 11:08:50;;;;;;;1.20;1.10;;;;;;;;;;5077952;28;20205;-84
2022/03/18 11:11:18;;;;;;;1.55;1.20;;;;;;;;;;5075454;28;20232;-84
2022/03/18 11:13:52;;;;;;;1.55;1.45;;;;;;;;;;5075547;28;20246;-82
2022/03/18 11:16:22;;;;;;;1.30;1.20;;;;;;;;;;5075293;28;20270;-83
2022/03/18 11:18:51;;;;;;;2.15;1.15;;;;;;;;;;5077433;28;20563;-84
2022/03/18 11:21:21;;;;;;;1.30;1.20;;;;;;;;;;5078481;28;20220;-84
2022/03/18 11:23:49;;;;;;;1.30;1.15;;;;;;;;;;5075805;28;20665;-84
2022/03/18 11:26:19;;;;;;;1.20;1.10;;;;;;;;;;5077328;28;20197;-83
2022/03/18 11:28:46;;;;;;;2.28;1.40;;;;;;;;;;5075993;28;20208;-84
2022/03/18 11:31:18;;;;;;;1.88;1.10;;;;;;;;;;5075535;28;20573;-84
2022/03/18 11:34:12;;;;;;;1.65;0.98;;;;;;;;;;5075345;28;20209;-83
2022/03/18 11:36:46;;;;;;;1.83;1.55;;;;;;;;;;5075266;28;20267;-83
2022/03/18 11:39:21;;;;;;;0.90;0.90;;;;;;;;;;5074686;28;20700;-83
2022/03/18 11:41:57;;;;;;;1.55;1.05;;;;;;;;;;5075668;28;20238;-85
2022/03/18 11:44:45;;;;;;;1.35;1.25;;;;;;;;;;5077136;28;20712;-83
2022/03/18 11:47:43;;;;;;;1.30;1.20;;;;;;;;;;5076480;28;20595;-84
2022/03/18 11:50:49;;;;;;;1.20;1.10;;;;;;;;;;5076844;28;20303;-84
2022/03/18 11:53:51;;;;;;;0.70;0.70;;;;;;;;;;5076753;28;20252;-84
2022/03/18 11:56:21;;;;;;;1.88;0.80;;;;;;;;;;5077210;28;20205;-84
2022/03/18 11:58:49;;;;;;;0.88;0.70;;;;;;;;;;5075831;28;20201;-83
2022/03/18 12:01:40;;;;;;;0.60;0.60;;;;;;;;;;5074603;28;20295;-83
2022/03/18 12:04:08;;;;;;;0.95;0.95;;;;;;;;;;5074951;28;20373;-84
2022/03/18 12:07:09;;;;;;;1.67;0.88;;;;;;;;;;5075736;28;20661;-84
2022/03/18 12:09:56;;;;;;;0.68;0.57;;;;;;;;;;5075228;28;20227;-82
2022/03/18 12:12:26;;;;;;;1.17;0.75;;;;;;;;;;5073141;28;20689;-82
2022/03/18 12:14:55;;;;;;;0.70;0.70;;;;;;;;;;5073757;28;20254;-83
2022/03/18 12:17:23;;;;;;;1.20;1.02;;;;;;;;;;5073926;28;20684;-83
2022/03/18 12:19:52;;;;;;;0.70;0.70;;;;;;;;;;5074637;28;20211;-85
2022/03/18 12:22:23;;;;;;;0.60;0.60;;;;;;;;;;5074177;28;20252;-84
2022/03/18 12:24:52;;;;;;;2.38;1.10;;;;;;;;;;5075176;28;20637;-84
2022/03/18 12:27:22;;;;;;;0.70;0.70;;;;;;;;;;5074589;28;20621;-84
2022/03/18 12:29:51;;;;;;;1.00;0.70;;;;;;;;;;5075302;28;20699;-83
2022/03/18 12:32:18;;;;;;;0.60;0.60;;;;;;;;;;5073928;28;20225;-83
2022/03/18 12:34:52;;;;;;;0.60;0.60;;;;;;;;;;5074865;28;20208;-83
2022/03/18 12:37:23;;;;;;;2.00;1.30;;;;;;;;;;5073671;28;20649;-82
2022/03/18 12:40:06;;;;;;;1.00;1.00;;;;;;;;;;5075343;28;20209;-84
2022/03/18 12:42:45;;;;;;;0.80;0.80;;;;;;;;;;5073998;28;20220;-84
2022/03/18 12:45:12;;;;;;;0.70;0.70;;;;;;;;;;5074666;28;20204;-82
2022/03/18 12:47:40;;;;;;;0.65;0.60;;;;;;;;;;5077757;28;20255;-84
2022/03/18 12:50:08;;;;;;;1.23;0.88;;;;;;;;;;5077365;28;20197;-83
2022/03/18 12:52:44;;;;;;;0.70;0.70;;;;;;;;;;5076400;28;20225;-82
2022/03/18 12:55:13;;;;;;;0.98;0.90;;;;;;;;;;5076012;28;20232;-81
2022/03/18 12:57:43;;;;;;;0.50;0.50;;;;;;;;;;5076155;28;20236;-83
2022/03/18 13:00:13;;;;;;;0.88;0.88;;;;;;;;;;5076224;28;20201;-83
2022/03/18 13:02:42;;;;;;;1.60;0.80;;;;;;;;;;5076140;28;20225;-84
2022/03/18 13:05:13;;;;;;;0.80;0.80;;;;;;;;;;5075641;28;20201;-83
2022/03/18 13:07:41;;;;;;;0.70;0.70;;;;;;;;;;5075585;28;20342;-83
2022/03/18 13:10:10;;;;;;;0.73;0.73;;;;;;;;;;5075258;28;20208;-84
2022/03/18 13:12:38;;;;;;;1.17;1.08;;;;;;;;;;5075110;28;20489;-84
2022/03/18 13:15:15;;;;;;;0.60;0.60;;;;;;;;;;5075598;28;20672;-83
2022/03/18 13:17:45;;;;;;;1.05;0.95;;;;;;;;;;5075576;28;20259;-83
2022/03/18 13:20:26;;;;;;;1.85;0.90;;;;;;;;;;5075626;28;20673;-83
2022/03/18 13:22:57;;;;;;;0.75;0.75;;;;;;;;;;5075377;28;20299;-83
2022/03/18 13:25:25;;;;;;;0.90;0.90;;;;;;;;;;5075951;28;20775;-83
2022/03/18 13:27:54;;;;;;;2.88;2.58;;;;;;;;;;5075784;28;20259;-82
2022/03/18 13:33:10;;;;;;;1.20;1.10;;;;;;;;;;5075284;28;20317;-84
2022/03/18 13:35:44;;;;;;;1.00;0.93;;;;;;;;;;5075618;28;20205;-83
2022/03/18 13:38:16;;;;;;;1.25;1.15;;;;;;;;;;5075067;28;20207;-83
2022/03/18 13:40:55;;;;;;;1.60;1.50;;;;;;;;;;5075526;28;20201;-83
2022/03/18 13:43:25;;;;;;;2.83;1.33;;;;;;;;;;5074465;28;20208;-83
2022/03/18 13:45:53;;;;;;;0.75;0.75;;;;;;;;;;5075258;28;20204;-83
2022/03/18 13:48:28;;;;;;;0.82;0.70;;;;;;;;;;5074921;28;20201;-83
2022/03/18 13:50:55;;;;;;;1.27;1.05;;;;;;;;;;5074899;28;20231;-83
2022/03/18 13:53:26;;;;;;;0.80;0.80;;;;;;;;;;5073896;28;20239;-84
2022/03/18 13:55:55;;;;;;;2.42;2.22;;;;;;;;;;5074375;28;20288;-84
2022/03/18 13:58:27;;;;;;;0.70;0.70;;;;;;;;;;5074816;28;20665;-83
2022/03/18 14:01:06;;;;;;;3.00;0.88;;;;;;;;;;5074870;28;20204;-82
2022/03/18 14:03:33;;;;;;;0.60;0.60;;;;;;;;;;5074053;28;20235;-83
2022/03/18 14:06:01;;;;;;;0.63;0.60;;;;;;;;;;5074615;28;20204;-83
2022/03/18 14:08:38;;;;;;;0.38;0.38;;;;;;;;;;5079618;28;20197;-82
2022/03/18 14:12:08;;;;;;;0.85;0.60;;;;;;;;;;5087658;28;20223;-81
2022/03/18 14:13:54;;;;;;;0.50;0.50;;;;;;;;;;5079258;28;20264;-83
2022/03/18 14:16:21;;;;;;;0.60;0.60;;;;;;;;;;5075183;28;20909;-83
2022/03/18 14:18:49;;;;;;;0.45;0.45;;;;;;;;;;5075205;28;20209;-83
2022/03/18 14:21:16;;;;;;;0.38;0.38;;;;;;;;;;5075670;28;20212;-82
2022/03/18 14:23:46;;;;;;;0.47;0.43;;;;;;;;;;5075173;28;20668;-82
2022/03/18 14:26:15;;;;;;;0.40;0.40;;;;;;;;;;5075836;28;20254;-83
2022/03/18 14:28:46;;;;;;;0.50;0.45;;;;;;;;;;5074946;28;20372;-84
2022/03/18 14:31:14;;;;;;;0.30;0.30;;;;;;;;;;5075522;28;20201;-81
2022/03/18 14:33:41;;;;;;;0.50;0.50;;;;;;;;;;5098127;22;20232;-80
2022/03/18 14:36:09;;;;;;;0.40;0.40;;;;;;;;;;5075629;28;20200;-80
2022/03/18 14:38:36;;;;;;;0.55;0.55;;;;;;;;;;5075037;28;20205;-79
2022/03/18 14:41:05;;;;;;;0.60;0.60;;;;;;;;;;5077902;28;20205;-79
2022/03/18 14:43:32;;;;;;;0.40;0.40;;;;;;;;;;5083336;28;20217;-79
2022/03/18 14:46:00;;;;;;;0.75;0.63;;;;;;;;;;5086435;28;20231;-79
2022/03/18 14:48:27;;;;;;;0.63;0.57;;;;;;;;;;5084536;28;20217;-79
2022/03/18 14:50:55;;;;;;;0.40;0.40;;;;;;;;;;5081026;28;20537;-80
2022/03/18 14:53:22;;;;;;;0.55;0.55;;;;;;;;;;5074034;28;20782;-81
2022/03/18 14:58:36;;;;;;;0.63;0.63;;;;;;;;;;5074734;28;20271;-79
2022/03/18 15:01:04;;;;;;;0.50;0.50;;;;;;;;;;5074953;28;20208;-79
2022/03/18 15:03:31;;;;;;;0.50;0.50;;;;;;;;;;5074514;28;20267;-79
2022/03/18 15:05:58;;;;;;;0.40;0.40;;;;;;;;;;5082252;28;20193;-79
2022/03/18 15:08:25;;;;;;;0.30;0.30;;;;;;;;;;5091433;28;20196;-79
2022/03/18 15:10:53;;;;;;;0.60;0.60;;;;;;;;;;5093700;28;20619;-79
2022/03/18 15:13:20;;;;;;;0.60;0.60;;;;;;;;;;5093701;28;20621;-79
2022/03/18 15:15:49;;;;;;;0.57;0.57;;;;;;;;;;5094481;28;20203;-80
2022/03/18 15:18:16;;;;;;;0.60;0.60;;;;;;;;;;5093967;28;20204;-79
2022/03/18 15:20:44;;;;;;;0.50;0.50;;;;;;;;;;5093707;28;20235;-79